createdAt,value
2022-09-25T00:00:54.549Z,18.10
2022-09-25T00:03:23.234Z,18.10
2022-09-25T00:05:50.351Z,18.10
2022-09-25T00:08:18.476Z,18.10
2022-09-25T00:10:50.068Z,18.10
2022-09-25T00:13:20.985Z,18.10
2022-09-25T00:15:53.422Z,18.10
2022-09-25T00:18:39.546Z,18.10
2022-09-25T00:21:08.079Z,18.10
2022-09-25T00:23:35.548Z,18.10
2022-09-25T00:26:05.957Z,18.10
2022-09-25T00:28:33.246Z,18.10
2022-09-25T00:31:00.283Z,18.10
2022-09-25T00:33:28.214Z,18.10
2022-09-25T00:35:55.154Z,18.10
2022-09-25T00:38:22.076Z,18.10
2022-09-25T00:40:49.136Z,18.10
2022-09-25T00:43:40.788Z,18.10
2022-09-25T00:46:13.381Z,18.10
2022-09-25T00:48:49.710Z,18.10
2022-09-25T00:51:20.366Z,18.10
2022-09-25T00:53:47.736Z,18.10
2022-09-25T00:56:15.226Z,18.10
2022-09-25T00:58:42.588Z,18.10
2022-09-25T01:01:10.349Z,18.10
2022-09-25T01:03:40.096Z,18.10
2022-09-25T01:06:07.215Z,18.10
2022-09-25T01:08:34.953Z,18.10
2022-09-25T01:11:02.264Z,18.10
2022-09-25T01:13:30.087Z,18.10
2022-09-25T01:16:17.243Z,18.10
2022-09-25T01:19:00.354Z,18.10
2022-09-25T01:21:49.175Z,18.00
2022-09-25T01:24:37.311Z,18.10
2022-09-25T01:27:07.159Z,18.00
2022-09-25T01:29:48.656Z,18.00
2022-09-25T01:32:31.481Z,18.00
2022-09-25T01:35:04.024Z,18.00
2022-09-25T01:37:38.984Z,17.90
2022-09-25T01:40:33.829Z,17.90
2022-09-25T01:43:10.365Z,17.90
2022-09-25T01:45:50.025Z,17.90
2022-09-25T01:48:21.447Z,17.90
2022-09-25T01:50:55.434Z,17.90
2022-09-25T01:53:28.980Z,17.90
2022-09-25T01:56:01.909Z,17.90
2022-09-25T01:58:46.479Z,17.80
2022-09-25T02:01:23.152Z,17.80
2022-09-25T02:04:05.470Z,17.80
2022-09-25T02:06:33.572Z,17.80
2022-09-25T02:09:32.699Z,17.80
2022-09-25T02:12:07.518Z,17.80
2022-09-25T02:14:43.455Z,17.80
2022-09-25T02:17:34.050Z,17.80
2022-09-25T02:20:19.859Z,17.90
2022-09-25T02:22:48.693Z,17.80
2022-09-25T02:25:29.884Z,17.80
2022-09-25T02:27:56.979Z,17.80
2022-09-25T02:30:24.132Z,17.80
2022-09-25T02:32:51.102Z,17.80
2022-09-25T02:35:19.127Z,17.80
2022-09-25T02:37:46.103Z,17.80
2022-09-25T02:40:13.069Z,17.80
2022-09-25T02:43:19.462Z,17.80
2022-09-25T02:46:03.374Z,17.90
2022-09-25T02:48:49.986Z,17.90
2022-09-25T02:51:33.026Z,17.80
2022-09-25T02:54:12.752Z,17.80
2022-09-25T02:56:48.832Z,17.90
2022-09-25T02:59:23.222Z,17.80
2022-09-25T03:01:51.266Z,17.90
2022-09-25T03:04:20.020Z,17.90
2022-09-25T03:06:47.517Z,17.90
2022-09-25T03:09:17.527Z,17.90
2022-09-25T03:11:44.512Z,17.90
2022-09-25T03:14:11.564Z,17.90
2022-09-25T03:16:45.118Z,17.90
2022-09-25T03:19:12.911Z,17.90
2022-09-25T03:21:39.947Z,17.90
2022-09-25T03:24:07.077Z,17.90
2022-09-25T03:26:34.099Z,17.80
2022-09-25T03:29:02.491Z,17.80
2022-09-25T03:31:30.320Z,17.80
2022-09-25T03:33:57.941Z,17.80
2022-09-25T03:36:27.524Z,17.70
2022-09-25T03:38:59.553Z,17.70
2022-09-25T03:41:29.625Z,17.70
2022-09-25T03:43:57.267Z,17.60
2022-09-25T03:46:32.815Z,17.60
2022-09-25T03:48:59.882Z,17.60
2022-09-25T03:51:28.715Z,17.60
2022-09-25T03:53:56.439Z,17.60
2022-09-25T03:56:27.169Z,17.60
2022-09-25T03:58:55.901Z,17.60
2022-09-25T04:01:23.738Z,17.60
2022-09-25T04:03:51.500Z,17.60
2022-09-25T04:06:21.364Z,17.60
2022-09-25T04:08:48.725Z,17.60
2022-09-25T04:11:20.636Z,17.70
2022-09-25T04:13:47.883Z,17.70
2022-09-25T04:16:16.760Z,17.60
2022-09-25T04:18:44.265Z,17.70
2022-09-25T04:21:12.877Z,17.60
2022-09-25T04:23:40.212Z,17.60
2022-09-25T04:26:09.159Z,17.60
2022-09-25T04:28:36.736Z,17.60
2022-09-25T04:31:04.940Z,17.50
2022-09-25T04:33:48.063Z,17.50
2022-09-25T04:36:16.657Z,17.50
2022-09-25T04:38:44.182Z,17.50
2022-09-25T04:41:11.599Z,17.50
2022-09-25T04:43:39.790Z,17.50
2022-09-25T04:46:08.524Z,17.50
2022-09-25T04:48:36.086Z,17.50
2022-09-25T04:51:04.410Z,17.50
2022-09-25T04:53:35.088Z,17.50
2022-09-25T04:56:05.358Z,17.50
2022-09-25T04:58:32.443Z,17.50
2022-09-25T05:01:06.959Z,17.50
2022-09-25T05:03:34.010Z,17.50
2022-09-25T05:06:01.016Z,17.40
2022-09-25T05:08:28.099Z,17.40
2022-09-25T05:10:55.215Z,17.40
2022-09-25T05:13:22.262Z,17.40
2022-09-25T05:15:49.444Z,17.40
2022-09-25T05:18:20.227Z,17.40
2022-09-25T05:20:48.040Z,17.40
2022-09-25T05:23:15.167Z,17.50
2022-09-25T05:25:42.456Z,17.50
2022-09-25T05:28:10.350Z,17.40
2022-09-25T05:30:38.926Z,17.40
2022-09-25T05:33:06.287Z,17.40
2022-09-25T05:35:34.729Z,17.40
2022-09-25T05:38:01.700Z,17.50
2022-09-25T05:40:29.001Z,17.50
2022-09-25T05:42:55.949Z,17.50
2022-09-25T05:45:23.871Z,17.50
2022-09-25T05:48:03.924Z,17.50
2022-09-25T05:50:32.528Z,17.50
2022-09-25T05:53:01.328Z,17.60
2022-09-25T05:55:29.330Z,17.50
2022-09-25T05:58:03.711Z,17.50
2022-09-25T06:00:32.990Z,17.50
2022-09-25T06:03:01.311Z,17.50
2022-09-25T06:05:28.553Z,17.60
2022-09-25T06:07:55.733Z,17.60
2022-09-25T06:10:26.097Z,17.60
2022-09-25T06:12:58.848Z,17.60
2022-09-25T06:15:27.828Z,17.60
2022-09-25T06:17:58.187Z,17.60
2022-09-25T06:20:25.590Z,17.60
2022-09-25T06:22:56.718Z,17.60
2022-09-25T06:25:26.029Z,17.60
2022-09-25T06:27:57.047Z,17.60
2022-09-25T06:30:27.360Z,17.60
2022-09-25T06:32:58.273Z,17.60
2022-09-25T06:35:25.918Z,17.70
2022-09-25T06:37:57.506Z,17.60
2022-09-25T06:40:28.039Z,17.60
2022-09-25T06:42:59.620Z,17.60
2022-09-25T06:45:28.498Z,17.70
2022-09-25T06:48:00.392Z,17.70
2022-09-25T06:50:31.883Z,17.70
2022-09-25T06:52:59.901Z,17.70
2022-09-25T06:55:27.832Z,17.80
2022-09-25T06:57:54.801Z,17.80
2022-09-25T07:00:21.729Z,17.80
2022-09-25T07:03:07.453Z,17.90
2022-09-25T07:05:34.951Z,17.80
2022-09-25T07:08:02.151Z,17.90
2022-09-25T07:10:29.182Z,17.90
2022-09-25T07:12:56.093Z,17.90
2022-09-25T07:15:23.050Z,17.90
2022-09-25T07:17:50.034Z,17.90
2022-09-25T07:20:17.400Z,18.00
2022-09-25T07:22:44.398Z,18.00
2022-09-25T07:25:12.750Z,18.00
2022-09-25T07:27:40.145Z,18.00
2022-09-25T07:30:08.449Z,18.00
2022-09-25T07:32:35.941Z,18.10
2022-09-25T07:35:03.288Z,18.10
2022-09-25T07:37:31.331Z,18.10
2022-09-25T07:39:58.348Z,18.10
2022-09-25T07:42:25.369Z,18.10
2022-09-25T07:44:52.718Z,18.10
2022-09-25T07:47:19.967Z,18.10
2022-09-25T07:49:47.300Z,18.10
2022-09-25T07:52:14.328Z,18.00
2022-09-25T07:54:42.287Z,18.10
2022-09-25T07:57:09.400Z,18.10
2022-09-25T07:59:36.926Z,18.10
2022-09-25T08:02:04.074Z,18.10
2022-09-25T08:04:31.251Z,18.20
2022-09-25T08:07:01.348Z,18.20
2022-09-25T08:09:28.330Z,18.20
2022-09-25T08:11:55.435Z,18.20
2022-09-25T08:14:26.621Z,18.20
2022-09-25T08:16:55.970Z,18.30
2022-09-25T08:19:24.089Z,18.30
2022-09-25T08:21:51.104Z,18.30
2022-09-25T08:24:18.092Z,18.30
2022-09-25T08:26:46.617Z,18.40
2022-09-25T08:29:13.691Z,18.40
2022-09-25T08:31:41.073Z,18.40
2022-09-25T08:34:36.287Z,18.40
2022-09-25T08:36:58.021Z,18.40
2022-09-25T08:39:25.384Z,18.40
2022-09-25T08:41:55.088Z,18.50
2022-09-25T08:44:35.113Z,18.50
2022-09-25T08:47:24.056Z,18.50
2022-09-25T08:50:02.921Z,18.60
2022-09-25T08:52:31.354Z,18.60
2022-09-25T08:54:58.957Z,18.60
2022-09-25T08:57:37.635Z,18.60
2022-09-25T09:00:20.659Z,18.60
2022-09-25T09:02:55.133Z,18.70
2022-09-25T09:05:27.595Z,18.70
2022-09-25T09:08:07.988Z,18.70
2022-09-25T09:10:40.486Z,18.70
2022-09-25T09:13:16.901Z,18.80
2022-09-25T09:15:49.945Z,18.80
2022-09-25T09:18:27.309Z,18.80
2022-09-25T09:20:56.494Z,18.80
2022-09-25T09:23:27.580Z,18.80
2022-09-25T09:26:01.067Z,18.80
2022-09-25T09:28:54.527Z,18.80
2022-09-25T09:31:27.114Z,18.80
2022-09-25T09:34:15.445Z,18.80
2022-09-25T09:36:49.743Z,18.80
2022-09-25T09:39:23.661Z,18.90
2022-09-25T09:42:09.937Z,18.90
2022-09-25T09:44:50.102Z,18.80
2022-09-25T09:47:50.567Z,18.80
2022-09-25T09:50:28.440Z,18.80
2022-09-25T09:53:07.264Z,18.80
2022-09-25T09:55:45.129Z,18.90
2022-09-25T09:58:29.143Z,18.90
2022-09-25T10:00:56.928Z,18.90
2022-09-25T10:03:32.641Z,18.90
2022-09-25T10:06:03.460Z,18.90
2022-09-25T10:08:30.671Z,18.90
2022-09-25T10:10:59.198Z,19.00
2022-09-25T10:13:32.495Z,19.00
2022-09-25T10:16:06.087Z,19.10
2022-09-25T10:18:55.129Z,19.10
2022-09-25T10:21:27.198Z,19.20
2022-09-25T10:23:59.191Z,19.30
2022-09-25T10:26:30.316Z,19.30
2022-09-25T10:28:59.573Z,19.40
2022-09-25T10:31:30.420Z,19.50
2022-09-25T10:34:22.267Z,19.50
2022-09-25T10:36:54.243Z,19.60
2022-09-25T10:39:49.475Z,19.60
2022-09-25T10:42:41.507Z,19.70
2022-09-25T10:45:31.047Z,19.70
2022-09-25T10:48:16.575Z,19.70
2022-09-25T10:50:43.974Z,19.70
2022-09-25T10:53:32.558Z,19.80
2022-09-25T10:56:12.595Z,19.80
2022-09-25T10:58:43.205Z,19.80
2022-09-25T11:01:13.668Z,19.80
2022-09-25T11:04:01.631Z,19.80
2022-09-25T11:06:33.187Z,19.90
2022-09-25T11:09:03.018Z,19.90
2022-09-25T11:11:29.984Z,20.00
2022-09-25T11:13:59.933Z,19.90
2022-09-25T11:16:49.114Z,20.00
2022-09-25T11:19:29.792Z,20.00
2022-09-25T11:22:04.893Z,19.90
2022-09-25T11:25:01.524Z,19.90
2022-09-25T11:27:39.897Z,19.90
2022-09-25T11:30:18.907Z,19.90
2022-09-25T11:32:53.173Z,19.90
2022-09-25T11:35:41.301Z,20.00
2022-09-25T11:38:40.239Z,20.00
2022-09-25T11:41:22.851Z,20.00
2022-09-25T11:44:12.847Z,20.10
2022-09-25T11:47:02.246Z,20.10
2022-09-25T11:49:32.019Z,20.20
2022-09-25T11:52:06.598Z,20.30
2022-09-25T11:55:03.663Z,20.30
2022-09-25T11:57:42.708Z,20.40
2022-09-25T12:00:46.852Z,20.30
2022-09-25T12:03:32.426Z,20.40
2022-09-25T12:06:21.704Z,20.40
2022-09-25T12:09:10.318Z,20.50
2022-09-25T12:11:45.571Z,20.50
2022-09-25T12:14:42.799Z,20.60
2022-09-25T12:17:18.773Z,20.50
2022-09-25T12:19:49.714Z,20.50
2022-09-25T12:22:40.455Z,20.50
2022-09-25T12:25:39.920Z,20.50
2022-09-25T12:28:21.588Z,20.60
2022-09-25T12:31:03.519Z,20.60
2022-09-25T12:33:49.625Z,20.60
2022-09-25T12:36:23.380Z,20.60
2022-09-25T12:39:01.487Z,20.50
2022-09-25T12:41:30.480Z,20.50
2022-09-25T12:44:06.095Z,20.40
2022-09-25T12:46:45.496Z,20.40
2022-09-25T12:49:33.267Z,20.40
2022-09-25T12:52:10.103Z,20.30
2022-09-25T12:55:02.208Z,20.30
2022-09-25T12:57:49.391Z,20.30
2022-09-25T13:00:22.247Z,20.20
2022-09-25T13:03:04.143Z,20.20
2022-09-25T13:05:38.060Z,20.30
2022-09-25T13:08:14.790Z,20.30
2022-09-25T13:10:52.093Z,20.30
2022-09-25T13:13:25.980Z,20.40
2022-09-25T13:15:58.905Z,20.40
2022-09-25T13:18:28.339Z,20.50
2022-09-25T13:21:05.919Z,20.60
2022-09-25T13:23:40.620Z,20.80
2022-09-25T13:26:19.061Z,20.90
2022-09-25T13:28:48.790Z,21.00
2022-09-25T13:31:28.526Z,21.10
2022-09-25T13:34:05.669Z,21.20
2022-09-25T13:36:34.730Z,21.20
2022-09-25T13:39:23.744Z,21.30
2022-09-25T13:42:06.224Z,21.20
2022-09-25T13:44:45.114Z,21.20
2022-09-25T13:47:24.338Z,21.20
2022-09-25T13:50:16.595Z,21.10
2022-09-25T13:52:43.573Z,21.10
2022-09-25T13:55:13.460Z,21.00
2022-09-25T13:57:58.880Z,21.00
2022-09-25T14:00:38.322Z,21.00
2022-09-25T14:03:05.893Z,20.90
2022-09-25T14:05:36.091Z,20.90
2022-09-25T14:08:06.914Z,20.90
2022-09-25T14:10:35.220Z,20.90
2022-09-25T14:13:07.004Z,20.80
2022-09-25T14:15:38.768Z,20.80
2022-09-25T14:18:09.094Z,20.80
2022-09-25T14:20:40.595Z,20.70
2022-09-25T14:23:14.185Z,20.70
2022-09-25T14:25:44.603Z,20.70
2022-09-25T14:28:21.394Z,20.70
2022-09-25T14:31:07.430Z,20.70
2022-09-25T14:33:45.254Z,20.60
2022-09-25T14:36:50.436Z,20.60
2022-09-25T14:39:44.821Z,20.60
2022-09-25T14:42:20.412Z,20.60
2022-09-25T14:45:19.052Z,20.60
2022-09-25T14:47:48.612Z,20.60
2022-09-25T14:50:23.940Z,20.60
2022-09-25T14:52:58.150Z,20.60
2022-09-25T14:55:29.016Z,20.60
2022-09-25T14:58:00.175Z,20.50
2022-09-25T15:00:28.357Z,20.60
2022-09-25T15:02:57.744Z,20.50
2022-09-25T15:05:27.546Z,20.50
2022-09-25T15:07:58.907Z,20.50
2022-09-25T15:10:31.349Z,20.50
2022-09-25T15:13:10.123Z,20.60
2022-09-25T15:15:38.888Z,20.60
2022-09-25T15:18:12.326Z,20.60
2022-09-25T15:20:45.549Z,20.60
2022-09-25T15:23:19.104Z,20.60
2022-09-25T15:25:50.839Z,20.60
2022-09-25T15:28:21.031Z,20.70
2022-09-25T15:30:56.242Z,20.70
2022-09-25T15:33:32.320Z,20.70
2022-09-25T15:36:01.745Z,20.70
2022-09-25T15:38:37.784Z,20.70
2022-09-25T15:41:12.497Z,20.80
2022-09-25T15:43:39.414Z,20.90
2022-09-25T15:46:10.217Z,21.10
2022-09-25T15:48:40.333Z,21.40
2022-09-25T15:51:22.223Z,21.90
2022-09-25T15:53:55.428Z,22.50
2022-09-25T15:56:29.809Z,23.00
2022-09-25T15:59:02.013Z,23.30
2022-09-25T16:01:50.632Z,23.40
2022-09-25T16:04:40.016Z,23.20
2022-09-25T16:07:29.524Z,22.80
2022-09-25T16:10:03.359Z,22.50
2022-09-25T16:12:36.070Z,22.30
2022-09-25T16:15:30.030Z,22.20
2022-09-25T16:18:05.645Z,22.30
2022-09-25T16:20:38.177Z,22.40
2022-09-25T16:23:18.285Z,22.30
2022-09-25T16:25:45.753Z,22.20
2022-09-25T16:28:17.596Z,22.10
2022-09-25T16:30:50.069Z,21.90
2022-09-25T16:33:24.192Z,21.80
2022-09-25T16:36:11.526Z,21.60
2022-09-25T16:38:38.539Z,21.50
2022-09-25T16:41:25.929Z,21.30
2022-09-25T16:44:14.539Z,21.20
2022-09-25T16:47:28.407Z,21.10
2022-09-25T16:49:55.380Z,21.00
2022-09-25T16:52:26.329Z,20.90
2022-09-25T16:54:56.898Z,20.80
2022-09-25T16:57:27.733Z,20.80
2022-09-25T16:59:54.826Z,20.70
2022-09-25T17:02:35.166Z,20.60
2022-09-25T17:05:18.946Z,20.60
2022-09-25T17:07:50.633Z,20.50
2022-09-25T17:10:21.044Z,20.50
2022-09-25T17:12:53.501Z,20.40
2022-09-25T17:15:32.811Z,20.40
2022-09-25T17:18:02.058Z,20.40
2022-09-25T17:20:34.071Z,20.30
2022-09-25T17:23:01.031Z,20.30
2022-09-25T17:25:38.276Z,20.30
2022-09-25T17:28:06.893Z,20.20
2022-09-25T17:30:33.956Z,20.20
2022-09-25T17:33:05.162Z,20.20
2022-09-25T17:35:49.057Z,20.20
2022-09-25T17:38:16.182Z,20.10
2022-09-25T17:40:45.304Z,20.10
2022-09-25T17:43:13.979Z,20.10
2022-09-25T17:45:44.858Z,20.10
2022-09-25T17:48:12.031Z,20.10
2022-09-25T17:50:39.653Z,20.00
2022-09-25T17:53:18.648Z,20.10
2022-09-25T17:55:52.641Z,20.00
2022-09-25T17:58:22.040Z,20.00
2022-09-25T18:00:49.671Z,20.00
2022-09-25T18:03:16.830Z,20.00
2022-09-25T18:05:44.394Z,20.00
2022-09-25T18:08:12.565Z,20.00
2022-09-25T18:10:40.436Z,20.00
2022-09-25T18:13:13.102Z,20.00
2022-09-25T18:15:57.055Z,20.00
2022-09-25T18:18:24.254Z,19.90
2022-09-25T18:21:10.025Z,20.00
2022-09-25T18:23:38.709Z,19.90
2022-09-25T18:26:08.901Z,19.90
2022-09-25T18:28:36.236Z,19.90
2022-09-25T18:31:03.419Z,19.90
2022-09-25T18:33:30.441Z,19.90
2022-09-25T18:35:57.511Z,19.90
2022-09-25T18:38:24.517Z,19.90
2022-09-25T18:40:51.594Z,19.80
2022-09-25T18:43:18.754Z,19.80
2022-09-25T18:45:52.379Z,19.80
2022-09-25T18:48:19.706Z,19.80
2022-09-25T18:50:47.998Z,19.80
2022-09-25T18:53:16.054Z,19.70
2022-09-25T18:55:43.903Z,19.70
2022-09-25T18:58:13.837Z,19.70
2022-09-25T19:00:40.830Z,19.70
2022-09-25T19:03:07.886Z,19.70
2022-09-25T19:05:34.941Z,19.70
2022-09-25T19:08:03.430Z,19.60
2022-09-25T19:10:34.364Z,19.60
2022-09-25T19:13:01.361Z,19.60
2022-09-25T19:15:29.513Z,19.60
2022-09-25T19:17:59.420Z,19.50
2022-09-25T19:20:26.436Z,19.50
2022-09-25T19:22:53.999Z,19.50
2022-09-25T19:25:22.699Z,19.50
2022-09-25T19:27:49.892Z,19.50
2022-09-25T19:30:16.877Z,19.50
2022-09-25T19:32:43.854Z,19.40
2022-09-25T19:35:11.306Z,19.40
2022-09-25T19:37:39.451Z,19.40
2022-09-25T19:40:25.614Z,19.40
2022-09-25T19:42:52.612Z,19.40
2022-09-25T19:45:21.157Z,19.30
2022-09-25T19:47:48.313Z,19.30
2022-09-25T19:50:15.366Z,19.30
2022-09-25T19:52:42.333Z,19.30
2022-09-25T19:55:09.514Z,19.30
2022-09-25T19:57:36.776Z,19.30
2022-09-25T20:00:05.189Z,19.30
2022-09-25T20:02:36.104Z,19.20
2022-09-25T20:05:03.279Z,19.20
2022-09-25T20:07:30.306Z,19.20
2022-09-25T20:09:57.441Z,19.20
2022-09-25T20:12:24.604Z,19.20
2022-09-25T20:14:51.732Z,19.20
2022-09-25T20:17:19.056Z,19.20
2022-09-25T20:19:46.140Z,19.20
2022-09-25T20:22:13.072Z,19.20
2022-09-25T20:24:39.983Z,19.10
2022-09-25T20:27:07.602Z,19.10
2022-09-25T20:29:34.938Z,19.10
2022-09-25T20:32:02.095Z,19.10
2022-09-25T20:34:29.067Z,19.10
2022-09-25T20:36:56.185Z,19.10
2022-09-25T20:39:23.346Z,19.00
2022-09-25T20:41:50.918Z,19.00
2022-09-25T20:44:18.052Z,19.00
2022-09-25T20:46:45.378Z,19.00
2022-09-25T20:49:13.161Z,18.90
2022-09-25T20:51:41.170Z,18.90
2022-09-25T20:54:09.896Z,18.90
2022-09-25T20:56:43.583Z,18.90
2022-09-25T20:59:11.318Z,18.90
2022-09-25T21:01:41.032Z,18.80
2022-09-25T21:04:09.996Z,18.80
2022-09-25T21:06:39.859Z,18.80
2022-09-25T21:09:12.348Z,18.80
2022-09-25T21:11:40.340Z,18.70
2022-09-25T21:14:10.611Z,18.70
2022-09-25T21:16:37.756Z,18.70
2022-09-25T21:19:05.025Z,18.70
2022-09-25T21:21:33.628Z,18.70
2022-09-25T21:24:02.315Z,18.70
2022-09-25T21:26:30.848Z,18.60
2022-09-25T21:29:00.718Z,18.60
2022-09-25T21:31:32.288Z,18.60
2022-09-25T21:34:00.051Z,18.60
2022-09-25T21:36:28.468Z,18.60
2022-09-25T21:38:56.127Z,18.50
2022-09-25T21:41:25.281Z,18.50
2022-09-25T21:43:57.435Z,18.50
2022-09-25T21:46:25.646Z,18.50
2022-09-25T21:49:01.935Z,18.50
2022-09-25T21:51:32.070Z,18.50
2022-09-25T21:54:01.010Z,18.40
2022-09-25T21:56:30.895Z,18.50
2022-09-25T21:58:59.649Z,18.50
2022-09-25T22:01:35.194Z,18.50
2022-09-25T22:04:04.356Z,18.40
2022-09-25T22:06:37.012Z,18.40
2022-09-25T22:09:09.641Z,18.50
2022-09-25T22:11:38.062Z,18.40
2022-09-25T22:14:05.837Z,18.40
2022-09-25T22:16:38.663Z,18.40
2022-09-25T22:19:18.658Z,18.40
2022-09-25T22:21:47.667Z,18.30
2022-09-25T22:24:15.670Z,18.30
2022-09-25T22:26:45.378Z,18.30
2022-09-25T22:29:12.889Z,18.20
2022-09-25T22:31:43.522Z,18.20
2022-09-25T22:34:26.785Z,18.20
2022-09-25T22:36:59.088Z,18.20
2022-09-25T22:39:28.420Z,18.20
2022-09-25T22:41:56.167Z,18.20
2022-09-25T22:44:23.449Z,18.10
2022-09-25T22:46:50.799Z,18.10
2022-09-25T22:49:18.238Z,18.10
2022-09-25T22:51:45.481Z,18.10
2022-09-25T22:54:16.228Z,18.10
2022-09-25T22:56:43.780Z,18.10
2022-09-25T22:59:14.509Z,18.10
2022-09-25T23:01:48.487Z,18.00
2022-09-25T23:04:23.256Z,18.00
2022-09-25T23:06:50.926Z,18.00
2022-09-25T23:09:21.117Z,17.90
2022-09-25T23:11:48.225Z,17.90
2022-09-25T23:14:22.017Z,17.90
2022-09-25T23:16:51.053Z,17.90
2022-09-25T23:19:19.003Z,17.90
2022-09-25T23:21:46.156Z,17.90
2022-09-25T23:24:16.984Z,17.80
2022-09-25T23:26:45.475Z,17.90
2022-09-25T23:29:14.938Z,17.80
2022-09-25T23:31:42.738Z,17.80
2022-09-25T23:34:10.253Z,17.90
2022-09-25T23:36:38.241Z,17.80
2022-09-25T23:39:06.771Z,17.80
2022-09-25T23:41:35.993Z,17.90
2022-09-25T23:44:04.809Z,17.80
2022-09-25T23:46:34.479Z,17.80
2022-09-25T23:49:01.983Z,17.80
2022-09-25T23:51:29.390Z,17.80
2022-09-25T23:53:57.720Z,17.80
2022-09-25T23:56:27.079Z,17.80
2022-09-25T23:58:56.166Z,17.80
